createdAt,value
2019-02-22T00:01:46.876Z,16.00
2019-02-22T00:04:12.931Z,14.30
2019-02-22T00:06:39.268Z,17.67
2019-02-22T00:09:06.611Z,15.00
2019-02-22T00:11:32.688Z,16.30
2019-02-22T00:13:59.083Z,16.30
2019-02-22T00:16:25.132Z,16.60
2019-02-22T00:18:51.528Z,14.60
2019-02-22T00:21:17.607Z,16.70
2019-02-22T00:23:43.988Z,15.70
2019-02-22T00:26:11.165Z,14.83
2019-02-22T00:28:37.671Z,14.10
2019-02-22T00:31:03.739Z,16.50
2019-02-22T00:33:30.160Z,15.03
2019-02-22T00:35:56.360Z,16.33
2019-02-22T00:38:23.501Z,15.20
2019-02-22T00:40:49.589Z,14.43
2019-02-22T00:43:15.640Z,14.77
2019-02-22T00:45:42.388Z,15.23
2019-02-22T00:48:08.716Z,15.53
2019-02-22T00:50:34.772Z,15.20
2019-02-22T00:53:00.843Z,12.83
2019-02-22T00:55:27.198Z,16.13
2019-02-22T00:57:53.467Z,15.03
2019-02-22T01:00:19.511Z,15.77
2019-02-22T01:02:45.875Z,15.80
2019-02-22T01:05:11.998Z,16.30
2019-02-22T01:07:38.587Z,14.60
2019-02-22T01:10:05.034Z,14.90
2019-02-22T01:12:31.472Z,14.50
2019-02-22T01:14:57.555Z,14.27
2019-02-22T01:17:23.595Z,15.37
2019-02-22T01:19:49.679Z,14.83
2019-02-22T01:22:16.096Z,15.93
2019-02-22T01:24:42.435Z,14.20
2019-02-22T01:27:08.847Z,13.17
2019-02-22T01:29:34.920Z,14.47
2019-02-22T01:32:01.348Z,14.43
2019-02-22T01:34:27.417Z,14.73
2019-02-22T01:36:53.794Z,12.67
2019-02-22T01:39:20.121Z,14.23
2019-02-22T01:41:46.563Z,13.70
2019-02-22T01:44:22.148Z,13.40
2019-02-22T01:46:48.252Z,14.00
2019-02-22T01:49:14.539Z,13.23
2019-02-22T01:51:40.697Z,14.03
2019-02-22T01:54:07.017Z,13.80
2019-02-22T01:56:33.457Z,13.50
2019-02-22T01:58:59.539Z,14.47
2019-02-22T02:01:25.889Z,13.23
2019-02-22T02:03:52.229Z,13.77
2019-02-22T02:06:18.286Z,13.17
2019-02-22T02:08:44.368Z,13.30
2019-02-22T02:11:10.817Z,13.33
2019-02-22T02:13:36.862Z,13.70
2019-02-22T02:16:02.912Z,14.50
2019-02-22T02:18:29.231Z,13.30
2019-02-22T02:20:55.325Z,13.43
2019-02-22T02:23:21.452Z,13.37
2019-02-22T02:25:47.604Z,12.70
2019-02-22T02:28:13.660Z,14.30
2019-02-22T02:30:39.705Z,12.57
2019-02-22T02:33:05.785Z,13.97
2019-02-22T02:35:32.452Z,11.90
2019-02-22T02:37:58.532Z,12.00
2019-02-22T02:40:24.904Z,12.70
2019-02-22T02:42:50.985Z,13.10
2019-02-22T02:45:17.404Z,13.40
2019-02-22T02:47:43.489Z,11.53
2019-02-22T02:50:13.335Z,13.40
2019-02-22T02:52:39.811Z,13.10
2019-02-22T02:55:26.899Z,12.40
2019-02-22T02:57:53.340Z,12.30
2019-02-22T03:00:19.384Z,12.53
2019-02-22T03:02:45.489Z,12.10
2019-02-22T03:05:11.964Z,12.33
2019-02-22T03:07:39.953Z,13.07
2019-02-22T03:10:08.069Z,13.40
2019-02-22T03:12:34.541Z,12.97
2019-02-22T03:15:00.581Z,11.83
2019-02-22T03:17:26.991Z,11.63
2019-02-22T03:19:53.319Z,12.40
2019-02-22T03:22:19.402Z,11.77
2019-02-22T03:24:45.813Z,12.27
2019-02-22T03:27:12.515Z,12.70
2019-02-22T03:29:38.587Z,12.90
2019-02-22T03:32:05.009Z,12.23
2019-02-22T03:34:31.193Z,11.60
2019-02-22T03:36:57.328Z,13.03
2019-02-22T03:39:23.405Z,11.47
2019-02-22T03:41:49.455Z,12.00
2019-02-22T03:44:15.532Z,11.53
2019-02-22T03:46:41.580Z,11.23
2019-02-22T03:49:08.024Z,12.10
2019-02-22T03:51:34.065Z,12.33
2019-02-22T03:54:01.135Z,12.93
2019-02-22T03:56:27.551Z,10.93
2019-02-22T03:58:53.613Z,10.90
2019-02-22T04:01:19.683Z,11.10
2019-02-22T04:03:45.757Z,13.30
2019-02-22T04:06:12.168Z,12.10
2019-02-22T04:08:38.240Z,11.90
2019-02-22T04:11:04.663Z,11.97
2019-02-22T04:13:30.863Z,11.27
2019-02-22T04:15:56.913Z,11.67
2019-02-22T04:18:23.297Z,11.37
2019-02-22T04:20:49.950Z,10.90
2019-02-22T04:23:16.772Z,11.13
2019-02-22T04:25:43.096Z,11.43
2019-02-22T04:28:09.172Z,11.83
2019-02-22T04:30:37.799Z,11.60
2019-02-22T04:33:03.188Z,11.70
2019-02-22T04:35:29.547Z,12.27
2019-02-22T04:37:55.623Z,11.13
2019-02-22T04:40:21.676Z,11.13
2019-02-22T04:42:47.743Z,12.30
2019-02-22T04:45:14.164Z,11.07
2019-02-22T04:47:40.239Z,11.10
2019-02-22T04:50:07.633Z,11.00
2019-02-22T04:52:33.706Z,11.97
2019-02-22T04:54:59.752Z,12.20
2019-02-22T04:57:25.805Z,9.97
2019-02-22T04:59:52.124Z,11.20
2019-02-22T05:02:18.172Z,11.50
2019-02-22T05:04:44.583Z,11.27
2019-02-22T05:07:10.999Z,11.20
2019-02-22T05:09:37.075Z,11.77
2019-02-22T05:12:10.835Z,11.30
2019-02-22T05:14:31.735Z,11.70
2019-02-22T05:16:58.073Z,11.27
2019-02-22T05:19:25.125Z,11.10
2019-02-22T05:21:51.543Z,10.20
2019-02-22T05:24:17.592Z,11.07
2019-02-22T05:26:43.670Z,11.77
2019-02-22T05:29:09.712Z,10.60
2019-02-22T05:31:35.784Z,10.73
2019-02-22T05:34:02.509Z,12.43
2019-02-22T05:36:28.921Z,11.77
2019-02-22T05:38:55.376Z,10.80
2019-02-22T05:41:21.421Z,11.40
2019-02-22T05:43:47.864Z,11.37
2019-02-22T05:46:14.565Z,11.30
2019-02-22T05:48:41.014Z,11.10
2019-02-22T05:51:07.086Z,11.70
2019-02-22T05:53:33.152Z,11.07
2019-02-22T05:55:59.620Z,10.83
2019-02-22T05:58:25.664Z,11.10
2019-02-22T06:00:51.717Z,11.40
2019-02-22T06:03:17.787Z,11.40
2019-02-22T06:05:43.908Z,9.27
2019-02-22T06:08:10.385Z,12.27
2019-02-22T06:10:36.711Z,11.33
2019-02-22T06:13:02.789Z,11.03
2019-02-22T06:15:31.467Z,11.23
2019-02-22T06:17:58.057Z,11.03
2019-02-22T06:20:24.388Z,9.90
2019-02-22T06:22:50.827Z,10.63
2019-02-22T06:25:16.882Z,11.00
2019-02-22T06:27:43.297Z,11.17
2019-02-22T06:30:10.036Z,10.60
2019-02-22T06:32:36.443Z,12.00
2019-02-22T06:35:04.793Z,11.33
2019-02-22T06:37:31.610Z,10.80
2019-02-22T06:39:57.678Z,9.63
2019-02-22T06:42:23.752Z,10.73
2019-02-22T06:44:50.172Z,10.53
2019-02-22T06:47:16.578Z,10.10
2019-02-22T06:49:44.416Z,11.37
2019-02-22T06:52:10.963Z,10.83
2019-02-22T06:54:37.015Z,11.57
2019-02-22T06:57:03.793Z,11.00
2019-02-22T06:59:29.852Z,12.17
2019-02-22T07:01:55.930Z,18.50
2019-02-22T07:04:22.337Z,14.13
2019-02-22T07:06:48.414Z,20.00
2019-02-22T07:09:14.455Z,17.93
2019-02-22T07:11:42.429Z,13.00
2019-02-22T07:14:08.516Z,21.97
2019-02-22T07:16:34.592Z,11.27
2019-02-22T07:19:00.640Z,10.67
2019-02-22T07:21:26.687Z,11.37
2019-02-22T07:23:52.953Z,11.53
2019-02-22T07:26:19.000Z,10.30
2019-02-22T07:28:45.451Z,9.80
2019-02-22T07:31:11.740Z,11.13
2019-02-22T07:33:38.697Z,11.20
2019-02-22T07:36:05.016Z,8.97
2019-02-22T07:38:31.060Z,10.37
2019-02-22T07:40:57.471Z,10.43
2019-02-22T07:43:23.800Z,11.33
2019-02-22T07:45:50.683Z,9.03
2019-02-22T07:48:16.724Z,8.60
2019-02-22T07:50:42.767Z,9.77
2019-02-22T07:53:08.839Z,9.60
2019-02-22T07:55:35.137Z,10.10
2019-02-22T07:58:01.211Z,8.90
2019-02-22T08:00:27.595Z,9.47
2019-02-22T08:02:54.035Z,8.77
2019-02-22T08:05:20.363Z,8.90
2019-02-22T08:07:46.689Z,9.37
2019-02-22T08:10:13.020Z,9.07
2019-02-22T08:12:39.107Z,8.47
2019-02-22T08:15:08.545Z,9.43
2019-02-22T08:17:34.621Z,8.27
2019-02-22T08:20:00.917Z,8.13
2019-02-22T08:22:26.997Z,9.30
2019-02-22T08:24:53.054Z,9.03
2019-02-22T08:27:19.132Z,8.43
2019-02-22T08:29:45.175Z,8.93
2019-02-22T08:32:11.226Z,8.37
2019-02-22T08:34:37.543Z,8.50
2019-02-22T08:37:03.955Z,7.53
2019-02-22T08:39:30.404Z,7.80
2019-02-22T08:41:56.447Z,8.63
2019-02-22T08:44:22.520Z,7.13
2019-02-22T08:46:48.889Z,7.43
2019-02-22T08:49:15.215Z,8.17
2019-02-22T08:51:41.259Z,7.63
2019-02-22T08:54:07.333Z,8.33
2019-02-22T08:56:33.381Z,6.87
2019-02-22T08:58:59.965Z,8.10
2019-02-22T09:01:26.011Z,7.47
2019-02-22T09:03:52.076Z,7.40
2019-02-22T09:06:18.148Z,7.70
2019-02-22T09:08:44.200Z,7.47
2019-02-22T09:11:10.644Z,7.87
2019-02-22T09:13:43.488Z,9.73
2019-02-22T09:16:05.347Z,7.57
2019-02-22T09:18:31.686Z,7.03
2019-02-22T09:20:58.000Z,8.03
2019-02-22T09:23:24.416Z,8.03
2019-02-22T09:25:50.497Z,7.00
2019-02-22T09:28:16.904Z,7.20
2019-02-22T09:30:42.961Z,6.77
2019-02-22T09:33:09.401Z,6.80
2019-02-22T09:35:36.291Z,7.53
2019-02-22T09:38:03.656Z,6.60
2019-02-22T09:40:30.099Z,7.83
2019-02-22T09:42:56.418Z,6.83
2019-02-22T09:45:24.596Z,6.80
2019-02-22T09:47:50.730Z,7.30
2019-02-22T09:50:16.777Z,6.80
2019-02-22T09:52:43.273Z,6.93
2019-02-22T09:55:10.937Z,6.43
2019-02-22T09:57:37.012Z,7.03
2019-02-22T10:00:09.839Z,6.80
2019-02-22T10:02:35.921Z,6.83
2019-02-22T10:05:04.573Z,6.87
2019-02-22T10:07:31.287Z,6.43
2019-02-22T10:09:58.023Z,6.57
2019-02-22T10:12:24.358Z,6.70
2019-02-22T10:14:50.787Z,6.90
2019-02-22T10:17:16.836Z,6.73
2019-02-22T10:19:42.912Z,6.70
2019-02-22T10:22:08.960Z,5.47
2019-02-22T10:24:35.041Z,6.10
2019-02-22T10:27:01.089Z,7.00
2019-02-22T10:29:27.169Z,6.03
2019-02-22T10:31:53.583Z,6.10
2019-02-22T10:34:19.657Z,5.83
2019-02-22T10:36:45.753Z,5.97
2019-02-22T10:39:11.899Z,6.57
2019-02-22T10:41:37.964Z,5.60
2019-02-22T10:44:04.035Z,5.60
2019-02-22T10:46:30.142Z,6.70
2019-02-22T10:48:56.212Z,5.43
2019-02-22T10:51:22.562Z,5.90
2019-02-22T10:53:48.644Z,5.50
2019-02-22T10:56:15.016Z,5.63
2019-02-22T10:58:41.107Z,5.70
2019-02-22T11:01:07.506Z,5.70
2019-02-22T11:03:34.418Z,5.80
2019-02-22T11:06:00.463Z,5.13
2019-02-22T11:08:26.507Z,5.60
2019-02-22T11:10:53.209Z,4.90
2019-02-22T11:13:21.330Z,5.10
2019-02-22T11:15:47.247Z,5.37
2019-02-22T11:18:14.144Z,5.90
2019-02-22T11:20:40.872Z,4.77
2019-02-22T11:23:06.921Z,5.63
2019-02-22T11:25:33.332Z,5.60
2019-02-22T11:27:59.707Z,5.10
2019-02-22T11:30:26.147Z,5.30
2019-02-22T11:32:52.200Z,5.43
2019-02-22T11:35:18.271Z,5.60
2019-02-22T11:37:44.569Z,4.87
2019-02-22T11:40:11.003Z,5.27
2019-02-22T11:42:37.416Z,4.93
2019-02-22T11:45:04.961Z,4.70
2019-02-22T11:47:31.627Z,4.83
2019-02-22T11:49:57.699Z,5.00
2019-02-22T11:52:24.092Z,4.73
2019-02-22T11:54:50.165Z,5.00
2019-02-22T11:57:19.575Z,4.77
2019-02-22T11:59:46.963Z,4.70
2019-02-22T12:02:13.386Z,4.40
2019-02-22T12:04:39.833Z,4.60
2019-02-22T12:07:05.876Z,4.50
2019-02-22T12:09:32.284Z,4.50
2019-02-22T12:11:58.372Z,4.70
2019-02-22T12:14:25.760Z,4.87
2019-02-22T12:16:51.835Z,5.07
2019-02-22T12:19:18.208Z,4.67
2019-02-22T12:21:44.624Z,4.40
2019-02-22T12:24:10.700Z,4.43
2019-02-22T12:26:36.749Z,4.90
2019-02-22T12:29:03.124Z,4.63
2019-02-22T12:31:30.218Z,4.50
2019-02-22T12:33:56.538Z,4.10
2019-02-22T12:36:22.588Z,4.57
2019-02-22T12:38:48.971Z,4.80
2019-02-22T12:41:15.039Z,4.37
2019-02-22T12:43:41.089Z,4.30
2019-02-22T12:46:07.173Z,6.70
2019-02-22T12:48:33.318Z,8.50
2019-02-22T12:51:00.091Z,6.03
2019-02-22T12:53:26.836Z,5.30
2019-02-22T12:55:52.883Z,11.13
2019-02-22T12:58:19.009Z,12.60
2019-02-22T13:00:46.182Z,27.83
2019-02-22T13:03:12.565Z,14.20
2019-02-22T13:05:38.610Z,15.50
2019-02-22T13:08:04.891Z,14.43
2019-02-22T13:10:30.927Z,15.00
2019-02-22T13:12:57.000Z,14.13
2019-02-22T13:15:23.093Z,13.83
2019-02-22T13:17:49.763Z,14.40
2019-02-22T13:20:16.475Z,13.23
2019-02-22T13:22:42.560Z,12.40
2019-02-22T13:25:11.022Z,11.80
2019-02-22T13:27:37.430Z,12.13
2019-02-22T13:30:07.312Z,11.20
2019-02-22T13:32:33.364Z,10.33
2019-02-22T13:35:00.335Z,10.63
2019-02-22T13:37:26.380Z,11.47
2019-02-22T13:39:52.732Z,11.03
2019-02-22T13:42:18.820Z,10.63
2019-02-22T13:44:44.869Z,10.30
2019-02-22T13:47:10.916Z,10.27
2019-02-22T13:49:37.366Z,8.80
2019-02-22T13:52:04.176Z,10.30
2019-02-22T13:54:30.255Z,12.60
2019-02-22T13:56:56.302Z,15.50
2019-02-22T13:59:22.381Z,14.83
2019-02-22T14:01:48.797Z,12.27
2019-02-22T14:04:14.879Z,14.63
2019-02-22T14:06:40.937Z,10.23
2019-02-22T14:09:07.016Z,8.43
2019-02-22T14:11:33.112Z,8.63
2019-02-22T14:13:59.404Z,8.83
2019-02-22T14:16:25.495Z,9.60
2019-02-22T14:18:51.862Z,12.50
2019-02-22T14:21:18.188Z,8.87
2019-02-22T14:23:44.619Z,9.20
2019-02-22T14:26:10.672Z,7.27
2019-02-22T14:28:36.772Z,12.47
2019-02-22T14:31:02.815Z,7.30
2019-02-22T14:33:29.532Z,9.40
2019-02-22T14:35:55.889Z,6.60
2019-02-22T14:38:22.174Z,6.83
2019-02-22T14:40:48.703Z,7.47
2019-02-22T14:43:16.850Z,6.57
2019-02-22T14:45:49.227Z,5.77
2019-02-22T14:48:11.215Z,6.27
2019-02-22T14:50:37.265Z,9.30
2019-02-22T14:53:04.787Z,6.27
2019-02-22T14:55:31.108Z,5.60
2019-02-22T14:57:57.228Z,5.20
2019-02-22T15:00:23.288Z,6.27
2019-02-22T15:02:49.885Z,4.60
2019-02-22T15:05:15.934Z,5.13
2019-02-22T15:07:42.089Z,5.07
2019-02-22T15:10:09.897Z,4.90
2019-02-22T15:12:36.307Z,6.47
2019-02-22T15:15:08.644Z,5.50
2019-02-22T15:17:37.083Z,5.40
2019-02-22T15:20:07.922Z,5.20
2019-02-22T15:22:34.256Z,4.87
2019-02-22T15:25:00.385Z,4.43
2019-02-22T15:27:27.222Z,4.60
2019-02-22T15:29:53.267Z,5.03
2019-02-22T15:32:19.320Z,4.80
2019-02-22T15:34:46.191Z,5.00
2019-02-22T15:37:12.704Z,4.97
2019-02-22T15:39:39.091Z,4.60
2019-02-22T15:42:05.255Z,4.60
2019-02-22T15:44:31.479Z,5.07
2019-02-22T15:46:57.551Z,5.63
2019-02-22T15:49:24.215Z,5.23
2019-02-22T15:51:51.033Z,5.27
2019-02-22T15:54:17.355Z,5.43
2019-02-22T15:56:43.493Z,4.63
2019-02-22T15:59:09.812Z,5.13
2019-02-22T16:01:36.547Z,4.57
2019-02-22T16:04:13.292Z,4.27
2019-02-22T16:06:40.208Z,4.17
2019-02-22T16:09:06.623Z,4.57
2019-02-22T16:11:32.932Z,4.07
2019-02-22T16:13:59.503Z,4.17
2019-02-22T16:16:27.024Z,4.23
2019-02-22T16:18:53.074Z,4.63
2019-02-22T16:21:19.368Z,3.40
2019-02-22T16:23:45.703Z,4.70
2019-02-22T16:26:13.920Z,3.50
2019-02-22T16:28:40.512Z,3.70
2019-02-22T16:31:07.601Z,3.90
2019-02-22T16:33:33.891Z,4.13
2019-02-22T16:36:00.220Z,3.60
2019-02-22T16:38:27.064Z,3.90
2019-02-22T16:40:53.108Z,4.07
2019-02-22T16:43:19.929Z,3.90
2019-02-22T16:45:46.353Z,3.70
2019-02-22T16:48:13.095Z,4.00
2019-02-22T16:50:39.247Z,3.60
2019-02-22T16:53:05.664Z,3.50
2019-02-22T16:55:31.834Z,3.40
2019-02-22T16:57:58.113Z,3.80
2019-02-22T17:00:24.548Z,3.27
2019-02-22T17:02:51.587Z,3.30
2019-02-22T17:05:17.640Z,3.30
2019-02-22T17:07:44.355Z,2.80
2019-02-22T17:10:11.117Z,2.90
2019-02-22T17:12:37.424Z,3.33
2019-02-22T17:15:06.777Z,4.10
2019-02-22T17:17:33.261Z,3.10
2019-02-22T17:19:59.583Z,3.20
2019-02-22T17:22:26.251Z,3.30
2019-02-22T17:24:52.296Z,3.10
2019-02-22T17:27:18.716Z,3.40
2019-02-22T17:29:45.417Z,3.70
2019-02-22T17:32:11.474Z,3.00
2019-02-22T17:34:37.976Z,3.60
2019-02-22T17:37:04.020Z,3.60
2019-02-22T17:39:30.528Z,3.17
2019-02-22T17:41:57.110Z,2.90
2019-02-22T17:44:23.152Z,3.90
2019-02-22T17:46:57.320Z,4.80
2019-02-22T17:49:17.592Z,3.53
2019-02-22T17:51:44.079Z,3.50
2019-02-22T17:54:10.123Z,3.70
2019-02-22T17:56:36.928Z,3.80
2019-02-22T17:59:03.904Z,3.50
2019-02-22T18:01:30.263Z,3.67
2019-02-22T18:03:56.900Z,4.20
2019-02-22T18:06:23.376Z,4.17
2019-02-22T18:08:50.383Z,3.97
2019-02-22T18:11:17.119Z,3.80
2019-02-22T18:13:43.163Z,3.93
2019-02-22T18:16:09.417Z,4.30
2019-02-22T18:18:35.809Z,4.63
2019-02-22T18:21:01.852Z,4.17
2019-02-22T18:23:28.366Z,4.53
2019-02-22T18:25:54.407Z,4.73
2019-02-22T18:28:20.454Z,4.20
2019-02-22T18:30:47.452Z,4.33
2019-02-22T18:33:13.779Z,5.13
2019-02-22T18:35:39.823Z,3.90
2019-02-22T18:38:05.962Z,5.13
2019-02-22T18:40:32.009Z,5.10
2019-02-22T18:42:58.388Z,5.17
2019-02-22T18:45:25.432Z,4.50
2019-02-22T18:47:51.485Z,4.87
2019-02-22T18:50:17.889Z,8.40
2019-02-22T18:52:44.063Z,4.93
2019-02-22T18:55:10.111Z,4.53
2019-02-22T18:57:36.460Z,4.73
2019-02-22T19:00:19.927Z,4.57
2019-02-22T19:02:46.430Z,4.20
2019-02-22T19:05:14.528Z,4.53
2019-02-22T19:07:40.569Z,4.60
2019-02-22T19:10:08.687Z,4.50
2019-02-22T19:12:34.927Z,4.77
2019-02-22T19:15:00.973Z,4.40
2019-02-22T19:17:30.667Z,4.50
2019-02-22T19:19:56.270Z,5.73
2019-02-22T19:22:22.491Z,3.57
2019-02-22T19:24:48.531Z,4.40
2019-02-22T19:27:15.096Z,4.20
2019-02-22T19:29:41.149Z,3.57
2019-02-22T19:32:07.812Z,4.80
2019-02-22T19:34:34.551Z,4.17
2019-02-22T19:37:01.303Z,4.30
2019-02-22T19:39:27.347Z,3.70
2019-02-22T19:41:53.455Z,4.30
2019-02-22T19:44:19.980Z,4.50
2019-02-22T19:46:46.403Z,3.80
2019-02-22T19:49:12.451Z,3.77
2019-02-22T19:51:39.308Z,4.40
2019-02-22T19:54:06.176Z,3.77
2019-02-22T19:56:32.233Z,3.17
2019-02-22T19:58:58.590Z,3.70
2019-02-22T20:01:25.960Z,3.60
2019-02-22T20:03:53.083Z,3.77
2019-02-22T20:06:19.912Z,4.30
2019-02-22T20:08:46.670Z,3.93
2019-02-22T20:11:13.801Z,3.40
2019-02-22T20:13:40.135Z,3.57
2019-02-22T20:16:06.459Z,3.70
2019-02-22T20:18:33.300Z,3.40
2019-02-22T20:20:59.716Z,7.80
2019-02-22T20:23:26.463Z,6.60
2019-02-22T20:25:53.368Z,3.40
2019-02-22T20:28:19.998Z,2.93
2019-02-22T20:30:46.404Z,5.00
2019-02-22T20:33:12.454Z,3.57
2019-02-22T20:35:39.297Z,3.47
2019-02-22T20:38:05.681Z,2.97
2019-02-22T20:40:31.729Z,3.07
2019-02-22T20:42:58.449Z,3.07
2019-02-22T20:45:24.776Z,4.60
2019-02-22T20:47:50.983Z,3.40
2019-02-22T20:50:17.330Z,3.30
2019-02-22T20:52:43.780Z,3.03
2019-02-22T20:55:11.590Z,3.17
2019-02-22T20:57:37.636Z,3.23
2019-02-22T21:00:06.237Z,3.00
2019-02-22T21:02:33.271Z,2.83
2019-02-22T21:04:59.647Z,3.03
2019-02-22T21:07:25.940Z,3.03
2019-02-22T21:09:51.984Z,3.20
2019-02-22T21:12:18.815Z,2.90
2019-02-22T21:14:45.375Z,2.40
2019-02-22T21:17:11.420Z,2.90
2019-02-22T21:19:37.791Z,2.40
2019-02-22T21:22:04.939Z,3.10
2019-02-22T21:24:30.992Z,2.73
2019-02-22T21:26:57.296Z,3.43
2019-02-22T21:29:23.711Z,3.10
2019-02-22T21:31:50.056Z,2.70
2019-02-22T21:34:16.387Z,3.03
2019-02-22T21:36:42.645Z,2.87
2019-02-22T21:39:08.944Z,3.07
2019-02-22T21:41:35.000Z,2.97
2019-02-22T21:44:01.111Z,2.80
2019-02-22T21:46:28.808Z,2.90
2019-02-22T21:48:55.443Z,2.70
2019-02-22T21:51:21.559Z,2.37
2019-02-22T21:53:47.624Z,3.13
2019-02-22T21:56:13.725Z,2.93
2019-02-22T21:58:40.197Z,2.90
2019-02-22T22:01:06.935Z,2.43
2019-02-22T22:03:33.044Z,2.40
2019-02-22T22:05:59.140Z,2.43
2019-02-22T22:08:25.517Z,2.53
2019-02-22T22:10:51.848Z,2.67
2019-02-22T22:13:21.362Z,2.70
2019-02-22T22:15:47.987Z,2.60
2019-02-22T22:18:14.032Z,3.73
2019-02-22T22:20:40.445Z,2.47
2019-02-22T22:23:06.771Z,1.97
2019-02-22T22:25:33.513Z,2.70
2019-02-22T22:27:59.839Z,2.73
2019-02-22T22:30:26.172Z,2.33
2019-02-22T22:32:52.841Z,2.60
2019-02-22T22:35:19.444Z,2.10
2019-02-22T22:37:45.488Z,2.60
2019-02-22T22:40:11.568Z,2.03
2019-02-22T22:42:37.607Z,1.87
2019-02-22T22:45:07.740Z,2.27
2019-02-22T22:47:34.168Z,1.90
2019-02-22T22:50:00.229Z,3.50
2019-02-22T22:52:26.296Z,3.53
2019-02-22T22:54:52.643Z,2.37
2019-02-22T22:57:19.059Z,1.93
2019-02-22T22:59:45.487Z,2.20
2019-02-22T23:02:11.564Z,2.70
2019-02-22T23:04:37.665Z,2.30
2019-02-22T23:07:04.092Z,2.70
2019-02-22T23:09:30.499Z,2.10
2019-02-22T23:11:56.571Z,2.23
2019-02-22T23:14:22.976Z,2.13
2019-02-22T23:16:49.711Z,2.23
2019-02-22T23:19:16.128Z,5.87
2019-02-22T23:21:42.784Z,2.07
2019-02-22T23:24:09.117Z,2.97
2019-02-22T23:26:35.528Z,2.30
2019-02-22T23:29:01.916Z,2.00
2019-02-22T23:31:28.515Z,2.27
2019-02-22T23:33:54.588Z,3.03
2019-02-22T23:36:21.000Z,2.13
2019-02-22T23:38:47.044Z,2.03
2019-02-22T23:41:13.115Z,2.43
2019-02-22T23:43:39.531Z,2.13
2019-02-22T23:46:05.574Z,2.23
2019-02-22T23:48:31.644Z,1.70
2019-02-22T23:50:58.024Z,2.17
2019-02-22T23:53:24.351Z,2.20
2019-02-22T23:55:50.395Z,2.13
2019-02-22T23:58:16.443Z,1.87
